sensor_id;sensor_type;location;lat;lon;timestamp;P1;durP1;ratioP1;P2;durP2;ratioP2
26824;SDS011;14402;48.178;11.566;2022-12-10T00:00:14;31.3;;;24.2;;
26824;SDS011;14402;48.178;11.566;2022-12-10T00:00:44;30.0;;;23.8;;
26824;SDS011;14402;48.178;11.566;2022-12-10T00:01:16;28.6;;;23.3;;
26824;SDS011;14402;48.178;11.566;2022-12-10T00:01:44;28.6;;;23.3;;
26824;SDS011;14402;48.178;11.566;2022-12-10T00:02:14;28.6;;;23.3;;
26824;SDS011;14402;48.178;11.566;2022-12-10T00:02:44;28.2;;;23.1;;
26824;SDS011;14402;48.178;11.566;2022-12-10T00:03:14;27.9;;;22.9;;
26824;SDS011;14402;48.178;11.566;2022-12-10T00:03:44;27.9;;;22.9;;
26824;SDS011;14402;48.178;11.566;2022-12-10T00:04:14;27.9;;;22.9;;
26824;SDS011;14402;48.178;11.566;2022-12-10T00:04:44;27.6;;;22.9;;
26824;SDS011;14402;48.178;11.566;2022-12-10T00:05:14;27.4;;;22.9;;
26824;SDS011;14402;48.178;11.566;2022-12-10T00:05:44;27.4;;;22.9;;
26824;SDS011;14402;48.178;11.566;2022-12-10T00:06:15;27.4;;;22.9;;
26824;SDS011;14402;48.178;11.566;2022-12-10T00:06:45;28.3;;;23.3;;
26824;SDS011;14402;48.178;11.566;2022-12-10T00:07:15;29.2;;;23.8;;
26824;SDS011;14402;48.178;11.566;2022-12-10T00:07:45;29.2;;;23.8;;
26824;SDS011;14402;48.178;11.566;2022-12-10T00:08:15;29.2;;;23.8;;
26824;SDS011;14402;48.178;11.566;2022-12-10T00:08:45;28.5;;;23.2;;
26824;SDS011;14402;48.178;11.566;2022-12-10T00:09:16;27.8;;;22.6;;
26824;SDS011;14402;48.178;11.566;2022-12-10T00:09:45;27.8;;;22.6;;
26824;SDS011;14402;48.178;11.566;2022-12-10T00:10:15;27.8;;;22.6;;
26824;SDS011;14402;48.178;11.566;2022-12-10T00:10:45;28.0;;;23.0;;
26824;SDS011;14402;48.178;11.566;2022-12-10T00:11:16;28.3;;;23.3;;
26824;SDS011;14402;48.178;11.566;2022-12-10T00:11:45;28.3;;;23.3;;
26824;SDS011;14402;48.178;11.566;2022-12-10T00:12:16;28.3;;;23.3;;
26824;SDS011;14402;48.178;11.566;2022-12-10T00:12:46;28.6;;;23.4;;
26824;SDS011;14402;48.178;11.566;2022-12-10T00:13:16;29.0;;;23.5;;
26824;SDS011;14402;48.178;11.566;2022-12-10T00:13:46;29.0;;;23.5;;
26824;SDS011;14402;48.178;11.566;2022-12-10T00:14:16;29.0;;;23.5;;
26824;SDS011;14402;48.178;11.566;2022-12-10T00:14:46;28.1;;;23.0;;
26824;SDS011;14402;48.178;11.566;2022-12-10T00:15:16;27.3;;;22.5;;
26824;SDS011;14402;48.178;11.566;2022-12-10T00:15:46;27.3;;;22.5;;
26824;SDS011;14402;48.178;11.566;2022-12-10T00:16:17;27.3;;;22.5;;
26824;SDS011;14402;48.178;11.566;2022-12-10T00:16:46;28.5;;;23.1;;
26824;SDS011;14402;48.178;11.566;2022-12-10T00:17:17;29.6;;;23.8;;
26824;SDS011;14402;48.178;11.566;2022-12-10T00:17:46;29.6;;;23.8;;
26824;SDS011;14402;48.178;11.566;2022-12-10T00:18:16;29.6;;;23.8;;
26824;SDS011;14402;48.178;11.566;2022-12-10T00:18:47;30.3;;;23.9;;
26824;SDS011;14402;48.178;11.566;2022-12-10T00:19:17;31.0;;;24.0;;
26824;SDS011;14402;48.178;11.566;2022-12-10T00:19:47;31.0;;;24.0;;
26824;SDS011;14402;48.178;11.566;2022-12-10T00:20:17;31.0;;;24.0;;
26824;SDS011;14402;48.178;11.566;2022-12-10T00:20:47;31.5;;;24.3;;
26824;SDS011;14402;48.178;11.566;2022-12-10T00:21:18;32.0;;;24.6;;
26824;SDS011;14402;48.178;11.566;2022-12-10T00:21:47;32.0;;;24.6;;
26824;SDS011;14402;48.178;11.566;2022-12-10T00:22:17;32.0;;;24.6;;
26824;SDS011;14402;48.178;11.566;2022-12-10T00:22:47;32.0;;;25.2;;
26824;SDS011;14402;48.178;11.566;2022-12-10T00:23:17;31.9;;;25.8;;
26824;SDS011;14402;48.178;11.566;2022-12-10T00:23:47;31.9;;;25.8;;
26824;SDS011;14402;48.178;11.566;2022-12-10T00:24:18;31.9;;;25.8;;
26824;SDS011;14402;48.178;11.566;2022-12-10T00:24:48;31.2;;;25.0;;
26824;SDS011;14402;48.178;11.566;2022-12-10T00:25:18;30.6;;;24.3;;
26824;SDS011;14402;48.178;11.566;2022-12-10T00:25:48;30.6;;;24.3;;
26824;SDS011;14402;48.178;11.566;2022-12-10T00:26:18;30.6;;;24.3;;
26824;SDS011;14402;48.178;11.566;2022-12-10T00:26:48;30.0;;;24.1;;
26824;SDS011;14402;48.178;11.566;2022-12-10T00:27:18;29.5;;;24.0;;
26824;SDS011;14402;48.178;11.566;2022-12-10T00:27:48;29.5;;;24.0;;
26824;SDS011;14402;48.178;11.566;2022-12-10T00:28:18;29.5;;;24.0;;
26824;SDS011;14402;48.178;11.566;2022-12-10T00:28:48;30.6;;;24.2;;
26824;SDS011;14402;48.178;11.566;2022-12-10T00:29:18;31.8;;;24.4;;
26824;SDS011;14402;48.178;11.566;2022-12-10T00:29:48;31.8;;;24.4;;
26824;SDS011;14402;48.178;11.566;2022-12-10T00:30:19;31.8;;;24.4;;
26824;SDS011;14402;48.178;11.566;2022-12-10T00:30:49;31.5;;;24.8;;
26824;SDS011;14402;48.178;11.566;2022-12-10T00:31:19;31.3;;;25.3;;
26824;SDS011;14402;48.178;11.566;2022-12-10T00:31:49;31.3;;;25.3;;
26824;SDS011;14402;48.178;11.566;2022-12-10T00:32:19;31.3;;;25.3;;
26824;SDS011;14402;48.178;11.566;2022-12-10T00:32:49;31.1;;;25.0;;
26824;SDS011;14402;48.178;11.566;2022-12-10T00:33:19;30.9;;;24.8;;
26824;SDS011;14402;48.178;11.566;2022-12-10T00:33:49;30.9;;;24.8;;
26824;SDS011;14402;48.178;11.566;2022-12-10T00:34:19;30.9;;;24.8;;
26824;SDS011;14402;48.178;11.566;2022-12-10T00:34:49;30.4;;;24.5;;
26824;SDS011;14402;48.178;11.566;2022-12-10T00:35:19;29.9;;;24.1;;
26824;SDS011;14402;48.178;11.566;2022-12-10T00:35:49;29.9;;;24.1;;
26824;SDS011;14402;48.178;11.566;2022-12-10T00:36:23;29.9;;;24.1;;
26824;SDS011;14402;48.178;11.566;2022-12-10T00:36:50;29.8;;;24.0;;
26824;SDS011;14402;48.178;11.566;2022-12-10T00:37:20;29.7;;;23.9;;
26824;SDS011;14402;48.178;11.566;2022-12-10T00:37:50;29.7;;;23.9;;
26824;SDS011;14402;48.178;11.566;2022-12-10T00:38:20;29.7;;;23.9;;
26824;SDS011;14402;48.178;11.566;2022-12-10T00:38:50;29.7;;;24.0;;
26824;SDS011;14402;48.178;11.566;2022-12-10T00:39:20;29.7;;;24.0;;
26824;SDS011;14402;48.178;11.566;2022-12-10T00:39:50;29.7;;;24.0;;
26824;SDS011;14402;48.178;11.566;2022-12-10T00:40:20;29.7;;;24.0;;
26824;SDS011;14402;48.178;11.566;2022-12-10T00:40:50;29.0;;;23.7;;
26824;SDS011;14402;48.178;11.566;2022-12-10T00:41:20;28.2;;;23.4;;
26824;SDS011;14402;48.178;11.566;2022-12-10T00:41:50;28.2;;;23.4;;
26824;SDS011;14402;48.178;11.566;2022-12-10T00:42:20;28.2;;;23.4;;
26824;SDS011;14402;48.178;11.566;2022-12-10T00:42:50;29.2;;;23.7;;
26824;SDS011;14402;48.178;11.566;2022-12-10T00:43:20;30.3;;;24.0;;
26824;SDS011;14402;48.178;11.566;2022-12-10T00:43:51;30.3;;;24.0;;
26824;SDS011;14402;48.178;11.566;2022-12-10T00:44:21;30.3;;;24.0;;
26824;SDS011;14402;48.178;11.566;2022-12-10T00:44:51;29.5;;;23.8;;
26824;SDS011;14402;48.178;11.566;2022-12-10T00:45:21;28.7;;;23.5;;
26824;SDS011;14402;48.178;11.566;2022-12-10T00:45:51;28.7;;;23.5;;
26824;SDS011;14402;48.178;11.566;2022-12-10T00:46:21;28.7;;;23.5;;
26824;SDS011;14402;48.178;11.566;2022-12-10T00:46:51;27.9;;;23.2;;
26824;SDS011;14402;48.178;11.566;2022-12-10T00:47:21;27.1;;;23.0;;
26824;SDS011;14402;48.178;11.566;2022-12-10T00:47:51;27.1;;;23.0;;
26824;SDS011;14402;48.178;11.566;2022-12-10T00:48:22;27.1;;;23.0;;
26824;SDS011;14402;48.178;11.566;2022-12-10T00:48:51;27.3;;;22.8;;
26824;SDS011;14402;48.178;11.566;2022-12-10T00:49:21;27.5;;;22.6;;
26824;SDS011;14402;48.178;11.566;2022-12-10T00:49:52;27.5;;;22.6;;
26824;SDS011;14402;48.178;11.566;2022-12-10T00:50:22;27.5;;;22.6;;
26824;SDS011;14402;48.178;11.566;2022-12-10T00:50:56;28.4;;;23.6;;
26824;SDS011;14402;48.178;11.566;2022-12-10T00:51:23;29.3;;;24.6;;
26824;SDS011;14402;48.178;11.566;2022-12-10T00:51:52;29.3;;;24.6;;
26824;SDS011;14402;48.178;11.566;2022-12-10T00:52:22;29.3;;;24.6;;
26824;SDS011;14402;48.178;11.566;2022-12-10T00:52:52;27.8;;;23.8;;
26824;SDS011;14402;48.178;11.566;2022-12-10T00:53:22;26.2;;;23.0;;
26824;SDS011;14402;48.178;11.566;2022-12-10T00:53:53;26.2;;;23.0;;
26824;SDS011;14402;48.178;11.566;2022-12-10T00:54:22;26.2;;;23.0;;
26824;SDS011;14402;48.178;11.566;2022-12-10T00:54:52;27.2;;;23.0;;
26824;SDS011;14402;48.178;11.566;2022-12-10T00:55:22;28.2;;;23.1;;
26824;SDS011;14402;48.178;11.566;2022-12-10T00:55:53;28.2;;;23.1;;
26824;SDS011;14402;48.178;11.566;2022-12-10T00:56:23;28.2;;;23.1;;
26824;SDS011;14402;48.178;11.566;2022-12-10T00:56:53;27.2;;;22.7;;
26824;SDS011;14402;48.178;11.566;2022-12-10T00:57:23;26.2;;;22.3;;
26824;SDS011;14402;48.178;11.566;2022-12-10T00:57:53;26.2;;;22.3;;
26824;SDS011;14402;48.178;11.566;2022-12-10T00:58:23;26.2;;;22.3;;
26824;SDS011;14402;48.178;11.566;2022-12-10T00:58:53;26.9;;;22.3;;
26824;SDS011;14402;48.178;11.566;2022-12-10T00:59:23;27.5;;;22.4;;
26824;SDS011;14402;48.178;11.566;2022-12-10T00:59:53;27.5;;;22.4;;
26824;SDS011;14402;48.178;11.566;2022-12-10T01:00:23;27.5;;;22.4;;
26824;SDS011;14402;48.178;11.566;2022-12-10T01:00:53;27.0;;;22.6;;
26824;SDS011;14402;48.178;11.566;2022-12-10T01:01:28;26.6;;;22.9;;
26824;SDS011;14402;48.178;11.566;2022-12-10T01:01:54;26.6;;;22.9;;
26824;SDS011;14402;48.178;11.566;2022-12-10T01:02:24;26.6;;;22.9;;
26824;SDS011;14402;48.178;11.566;2022-12-10T01:02:54;26.5;;;22.9;;
26824;SDS011;14402;48.178;11.566;2022-12-10T01:03:24;26.4;;;22.9;;
26824;SDS011;14402;48.178;11.566;2022-12-10T01:03:55;26.4;;;22.9;;
26824;SDS011;14402;48.178;11.566;2022-12-10T01:04:24;26.4;;;22.9;;
26824;SDS011;14402;48.178;11.566;2022-12-10T01:04:54;28.5;;;23.8;;
26824;SDS011;14402;48.178;11.566;2022-12-10T01:05:24;30.6;;;24.7;;
26824;SDS011;14402;48.178;11.566;2022-12-10T01:05:54;30.6;;;24.7;;
26824;SDS011;14402;48.178;11.566;2022-12-10T01:06:25;30.6;;;24.7;;
26824;SDS011;14402;48.178;11.566;2022-12-10T01:06:55;29.7;;;24.7;;
26824;SDS011;14402;48.178;11.566;2022-12-10T01:07:24;28.7;;;24.6;;
26824;SDS011;14402;48.178;11.566;2022-12-10T01:07:55;28.7;;;24.6;;
26824;SDS011;14402;48.178;11.566;2022-12-10T01:08:25;28.7;;;24.6;;
26824;SDS011;14402;48.178;11.566;2022-12-10T01:08:55;28.5;;;24.5;;
26824;SDS011;14402;48.178;11.566;2022-12-10T01:09:26;28.2;;;24.3;;
26824;SDS011;14402;48.178;11.566;2022-12-10T01:09:55;28.2;;;24.3;;
26824;SDS011;14402;48.178;11.566;2022-12-10T01:10:25;28.2;;;24.3;;
26824;SDS011;14402;48.178;11.566;2022-12-10T01:10:55;28.7;;;23.8;;
26824;SDS011;14402;48.178;11.566;2022-12-10T01:11:31;29.1;;;23.4;;
26824;SDS011;14402;48.178;11.566;2022-12-10T01:11:56;29.1;;;23.4;;
26824;SDS011;14402;48.178;11.566;2022-12-10T01:12:25;29.1;;;23.4;;
26824;SDS011;14402;48.178;11.566;2022-12-10T01:12:55;28.5;;;23.6;;
26824;SDS011;14402;48.178;11.566;2022-12-10T01:13:25;28.0;;;23.8;;
26824;SDS011;14402;48.178;11.566;2022-12-10T01:13:56;28.0;;;23.8;;
26824;SDS011;14402;48.178;11.566;2022-12-10T01:14:27;28.0;;;23.8;;
26824;SDS011;14402;48.178;11.566;2022-12-10T01:14:56;28.5;;;24.1;;
26824;SDS011;14402;48.178;11.566;2022-12-10T01:15:26;29.1;;;24.4;;
26824;SDS011;14402;48.178;11.566;2022-12-10T01:15:56;29.1;;;24.4;;
26824;SDS011;14402;48.178;11.566;2022-12-10T01:16:26;29.1;;;24.4;;
26824;SDS011;14402;48.178;11.566;2022-12-10T01:16:57;29.0;;;24.5;;
26824;SDS011;14402;48.178;11.566;2022-12-10T01:17:27;29.0;;;24.7;;
26824;SDS011;14402;48.178;11.566;2022-12-10T01:17:56;29.0;;;24.7;;
26824;SDS011;14402;48.178;11.566;2022-12-10T01:18:26;29.0;;;24.7;;
26824;SDS011;14402;48.178;11.566;2022-12-10T01:18:57;28.8;;;24.5;;
26824;SDS011;14402;48.178;11.566;2022-12-10T01:19:27;28.6;;;24.4;;
26824;SDS011;14402;48.178;11.566;2022-12-10T01:19:57;28.6;;;24.4;;
26824;SDS011;14402;48.178;11.566;2022-12-10T01:20:27;28.6;;;24.4;;
26824;SDS011;14402;48.178;11.566;2022-12-10T01:20:59;28.0;;;23.8;;
26824;SDS011;14402;48.178;11.566;2022-12-10T01:21:27;27.4;;;23.3;;
26824;SDS011;14402;48.178;11.566;2022-12-10T01:21:57;27.4;;;23.3;;
26824;SDS011;14402;48.178;11.566;2022-12-10T01:22:27;27.4;;;23.3;;
26824;SDS011;14402;48.178;11.566;2022-12-10T01:22:57;28.4;;;23.8;;
26824;SDS011;14402;48.178;11.566;2022-12-10T01:23:27;29.4;;;24.4;;
26824;SDS011;14402;48.178;11.566;2022-12-10T01:23:57;29.4;;;24.4;;
26824;SDS011;14402;48.178;11.566;2022-12-10T01:24:28;29.4;;;24.4;;
26824;SDS011;14402;48.178;11.566;2022-12-10T01:24:57;29.8;;;24.6;;
26824;SDS011;14402;48.178;11.566;2022-12-10T01:25:27;30.2;;;24.9;;
26824;SDS011;14402;48.178;11.566;2022-12-10T01:25:58;30.2;;;24.9;;
26824;SDS011;14402;48.178;11.566;2022-12-10T01:26:29;30.2;;;24.9;;
26824;SDS011;14402;48.178;11.566;2022-12-10T01:26:58;29.0;;;24.5;;
26824;SDS011;14402;48.178;11.566;2022-12-10T01:27:28;27.8;;;24.0;;
26824;SDS011;14402;48.178;11.566;2022-12-10T01:27:58;27.8;;;24.0;;
26824;SDS011;14402;48.178;11.566;2022-12-10T01:28:29;27.8;;;24.0;;
26824;SDS011;14402;48.178;11.566;2022-12-10T01:28:58;28.2;;;24.2;;
26824;SDS011;14402;48.178;11.566;2022-12-10T01:29:28;28.7;;;24.4;;
26824;SDS011;14402;48.178;11.566;2022-12-10T01:29:58;28.7;;;24.4;;
26824;SDS011;14402;48.178;11.566;2022-12-10T01:30:28;28.7;;;24.4;;
26824;SDS011;14402;48.178;11.566;2022-12-10T01:31:00;29.0;;;24.6;;
26824;SDS011;14402;48.178;11.566;2022-12-10T01:31:29;29.3;;;24.8;;
26824;SDS011;14402;48.178;11.566;2022-12-10T01:31:59;29.3;;;24.8;;
26824;SDS011;14402;48.178;11.566;2022-12-10T01:32:29;29.3;;;24.8;;
26824;SDS011;14402;48.178;11.566;2022-12-10T01:32:59;29.3;;;24.8;;
26824;SDS011;14402;48.178;11.566;2022-12-10T01:33:29;29.3;;;24.7;;
26824;SDS011;14402;48.178;11.566;2022-12-10T01:33:59;29.3;;;24.7;;
26824;SDS011;14402;48.178;11.566;2022-12-10T01:34:29;29.3;;;24.7;;
26824;SDS011;14402;48.178;11.566;2022-12-10T01:34:59;29.2;;;24.5;;
26824;SDS011;14402;48.178;11.566;2022-12-10T01:35:29;29.1;;;24.3;;
26824;SDS011;14402;48.178;11.566;2022-12-10T01:36:01;29.1;;;24.3;;
26824;SDS011;14402;48.178;11.566;2022-12-10T01:36:30;29.1;;;24.3;;
26824;SDS011;14402;48.178;11.566;2022-12-10T01:36:59;28.2;;;24.0;;
26824;SDS011;14402;48.178;11.566;2022-12-10T01:37:29;27.4;;;23.8;;
26824;SDS011;14402;48.178;11.566;2022-12-10T01:37:59;27.4;;;23.8;;
26824;SDS011;14402;48.178;11.566;2022-12-10T01:38:30;27.4;;;23.8;;
26824;SDS011;14402;48.178;11.566;2022-12-10T01:39:00;27.8;;;23.8;;
26824;SDS011;14402;48.178;11.566;2022-12-10T01:39:30;28.2;;;23.8;;
26824;SDS011;14402;48.178;11.566;2022-12-10T01:40:00;28.2;;;23.8;;
26824;SDS011;14402;48.178;11.566;2022-12-10T01:40:30;28.2;;;23.8;;
26824;SDS011;14402;48.178;11.566;2022-12-10T01:41:00;28.9;;;24.4;;
26824;SDS011;14402;48.178;11.566;2022-12-10T01:41:31;29.6;;;25.0;;
26824;SDS011;14402;48.178;11.566;2022-12-10T01:42:00;29.6;;;25.0;;
26824;SDS011;14402;48.178;11.566;2022-12-10T01:42:30;29.6;;;25.0;;
26824;SDS011;14402;48.178;11.566;2022-12-10T01:43:00;30.8;;;24.8;;
26824;SDS011;14402;48.178;11.566;2022-12-10T01:43:48;32.0;;;24.5;;
26824;SDS011;14402;48.178;11.566;2022-12-10T01:44:02;32.0;;;24.5;;
26824;SDS011;14402;48.178;11.566;2022-12-10T01:45:07;32.0;;;24.5;;
26824;SDS011;14402;48.178;11.566;2022-12-10T01:45:09;31.0;;;24.7;;
26824;SDS011;14402;48.178;11.566;2022-12-10T01:45:31;30.0;;;24.9;;
26824;SDS011;14402;48.178;11.566;2022-12-10T01:46:01;30.0;;;24.9;;
26824;SDS011;14402;48.178;11.566;2022-12-10T01:46:32;30.0;;;24.9;;
26824;SDS011;14402;48.178;11.566;2022-12-10T01:47:01;30.1;;;24.8;;
26824;SDS011;14402;48.178;11.566;2022-12-10T01:47:31;30.3;;;24.7;;
26824;SDS011;14402;48.178;11.566;2022-12-10T01:48:01;30.3;;;24.7;;
26824;SDS011;14402;48.178;11.566;2022-12-10T01:48:31;30.3;;;24.7;;
26824;SDS011;14402;48.178;11.566;2022-12-10T01:49:04;30.1;;;24.8;;
26824;SDS011;14402;48.178;11.566;2022-12-10T01:49:32;29.9;;;24.8;;
26824;SDS011;14402;48.178;11.566;2022-12-10T01:50:02;29.9;;;24.8;;
26824;SDS011;14402;48.178;11.566;2022-12-10T01:50:32;29.9;;;24.8;;
26824;SDS011;14402;48.178;11.566;2022-12-10T01:51:02;30.0;;;25.1;;
26824;SDS011;14402;48.178;11.566;2022-12-10T01:51:33;30.1;;;25.5;;
26824;SDS011;14402;48.178;11.566;2022-12-10T01:52:03;30.1;;;25.5;;
26824;SDS011;14402;48.178;11.566;2022-12-10T01:52:32;30.1;;;25.5;;
26824;SDS011;14402;48.178;11.566;2022-12-10T01:53:02;30.0;;;25.0;;
26824;SDS011;14402;48.178;11.566;2022-12-10T01:53:32;29.9;;;24.6;;
26824;SDS011;14402;48.178;11.566;2022-12-10T01:54:03;29.9;;;24.6;;
26824;SDS011;14402;48.178;11.566;2022-12-10T01:54:33;29.9;;;24.6;;
26824;SDS011;14402;48.178;11.566;2022-12-10T01:55:06;29.6;;;24.4;;
26824;SDS011;14402;48.178;11.566;2022-12-10T01:55:38;29.4;;;24.2;;
26824;SDS011;14402;48.178;11.566;2022-12-10T01:56:03;29.4;;;24.2;;
26824;SDS011;14402;48.178;11.566;2022-12-10T01:56:34;29.4;;;24.2;;
26824;SDS011;14402;48.178;11.566;2022-12-10T01:57:03;29.4;;;24.4;;
26824;SDS011;14402;48.178;11.566;2022-12-10T01:57:33;29.4;;;24.6;;
26824;SDS011;14402;48.178;11.566;2022-12-10T01:58:03;29.4;;;24.6;;
26824;SDS011;14402;48.178;11.566;2022-12-10T01:58:33;29.4;;;24.6;;
26824;SDS011;14402;48.178;11.566;2022-12-10T01:59:03;28.5;;;24.0;;
26824;SDS011;14402;48.178;11.566;2022-12-10T01:59:33;27.6;;;23.4;;
26824;SDS011;14402;48.178;11.566;2022-12-10T02:00:04;27.6;;;23.4;;
26824;SDS011;14402;48.178;11.566;2022-12-10T02:00:34;27.6;;;23.4;;
26824;SDS011;14402;48.178;11.566;2022-12-10T02:01:05;29.8;;;23.8;;
26824;SDS011;14402;48.178;11.566;2022-12-10T02:01:36;32.0;;;24.2;;
26824;SDS011;14402;48.178;11.566;2022-12-10T02:02:04;32.0;;;24.2;;
26824;SDS011;14402;48.178;11.566;2022-12-10T02:02:36;32.0;;;24.2;;
26824;SDS011;14402;48.178;11.566;2022-12-10T02:03:04;30.5;;;23.5;;
26824;SDS011;14402;48.178;11.566;2022-12-10T02:03:36;29.0;;;22.9;;
26824;SDS011;14402;48.178;11.566;2022-12-10T02:04:07;29.0;;;22.9;;
26824;SDS011;14402;48.178;11.566;2022-12-10T02:04:37;29.0;;;22.9;;
26824;SDS011;14402;48.178;11.566;2022-12-10T02:05:07;29.0;;;23.6;;
26824;SDS011;14402;48.178;11.566;2022-12-10T02:05:36;29.1;;;24.3;;
26824;SDS011;14402;48.178;11.566;2022-12-10T02:06:06;29.1;;;24.3;;
26824;SDS011;14402;48.178;11.566;2022-12-10T02:06:38;29.1;;;24.3;;
26824;SDS011;14402;48.178;11.566;2022-12-10T02:07:06;29.0;;;24.0;;
26824;SDS011;14402;48.178;11.566;2022-12-10T02:07:37;28.9;;;23.7;;
26824;SDS011;14402;48.178;11.566;2022-12-10T02:08:05;28.9;;;23.7;;
26824;SDS011;14402;48.178;11.566;2022-12-10T02:08:36;28.9;;;23.7;;
26824;SDS011;14402;48.178;11.566;2022-12-10T02:09:08;28.6;;;23.6;;
26824;SDS011;14402;48.178;11.566;2022-12-10T02:09:35;28.3;;;23.5;;
26824;SDS011;14402;48.178;11.566;2022-12-10T02:10:07;28.3;;;23.5;;
26824;SDS011;14402;48.178;11.566;2022-12-10T02:10:41;28.3;;;23.5;;
26824;SDS011;14402;48.178;11.566;2022-12-10T02:11:06;27.9;;;23.6;;
26824;SDS011;14402;48.178;11.566;2022-12-10T02:11:37;27.5;;;23.7;;
26824;SDS011;14402;48.178;11.566;2022-12-10T02:12:08;27.5;;;23.7;;
26824;SDS011;14402;48.178;11.566;2022-12-10T02:12:37;27.5;;;23.7;;
26824;SDS011;14402;48.178;11.566;2022-12-10T02:13:06;27.5;;;23.8;;
26824;SDS011;14402;48.178;11.566;2022-12-10T02:13:36;27.5;;;23.8;;
26824;SDS011;14402;48.178;11.566;2022-12-10T02:14:08;27.5;;;23.8;;
26824;SDS011;14402;48.178;11.566;2022-12-10T02:14:38;27.5;;;23.8;;
26824;SDS011;14402;48.178;11.566;2022-12-10T02:15:06;27.6;;;23.7;;
26824;SDS011;14402;48.178;11.566;2022-12-10T02:15:37;27.7;;;23.6;;
26824;SDS011;14402;48.178;11.566;2022-12-10T02:16:08;27.7;;;23.6;;
26824;SDS011;14402;48.178;11.566;2022-12-10T02:16:36;27.7;;;23.6;;
26824;SDS011;14402;48.178;11.566;2022-12-10T02:17:09;28.2;;;23.8;;
26824;SDS011;14402;48.178;11.566;2022-12-10T02:17:36;28.7;;;23.9;;
26824;SDS011;14402;48.178;11.566;2022-12-10T02:18:07;28.7;;;23.9;;
26824;SDS011;14402;48.178;11.566;2022-12-10T02:18:37;28.7;;;23.9;;
26824;SDS011;14402;48.178;11.566;2022-12-10T02:19:07;28.5;;;23.8;;
26824;SDS011;14402;48.178;11.566;2022-12-10T02:19:42;28.4;;;23.8;;
26824;SDS011;14402;48.178;11.566;2022-12-10T02:20:07;28.4;;;23.8;;
26824;SDS011;14402;48.178;11.566;2022-12-10T02:20:38;28.4;;;23.8;;
26824;SDS011;14402;48.178;11.566;2022-12-10T02:21:07;29.5;;;24.3;;
26824;SDS011;14402;48.178;11.566;2022-12-10T02:21:38;30.7;;;24.9;;
26824;SDS011;14402;48.178;11.566;2022-12-10T02:22:07;30.7;;;24.9;;
26824;SDS011;14402;48.178;11.566;2022-12-10T02:22:38;30.7;;;24.9;;
26824;SDS011;14402;48.178;11.566;2022-12-10T02:23:08;30.3;;;24.9;;
26824;SDS011;14402;48.178;11.566;2022-12-10T02:23:38;29.9;;;24.9;;
26824;SDS011;14402;48.178;11.566;2022-12-10T02:24:08;29.9;;;24.9;;
26824;SDS011;14402;48.178;11.566;2022-12-10T02:24:37;29.9;;;24.9;;
26824;SDS011;14402;48.178;11.566;2022-12-10T02:25:08;29.8;;;24.8;;
26824;SDS011;14402;48.178;11.566;2022-12-10T02:25:39;29.7;;;24.6;;
26824;SDS011;14402;48.178;11.566;2022-12-10T02:26:10;29.7;;;24.6;;
26824;SDS011;14402;48.178;11.566;2022-12-10T02:26:40;29.7;;;24.6;;
26824;SDS011;14402;48.178;11.566;2022-12-10T02:27:10;29.7;;;24.6;;
26824;SDS011;14402;48.178;11.566;2022-12-10T02:27:47;29.6;;;24.6;;
26824;SDS011;14402;48.178;11.566;2022-12-10T02:28:12;29.6;;;24.6;;
26824;SDS011;14402;48.178;11.566;2022-12-10T02:28:39;29.6;;;24.6;;
26824;SDS011;14402;48.178;11.566;2022-12-10T02:29:10;29.9;;;24.5;;
26824;SDS011;14402;48.178;11.566;2022-12-10T02:29:38;30.2;;;24.3;;
26824;SDS011;14402;48.178;11.566;2022-12-10T02:30:08;30.2;;;24.3;;
26824;SDS011;14402;48.178;11.566;2022-12-10T02:30:38;30.2;;;24.3;;
26824;SDS011;14402;48.178;11.566;2022-12-10T02:31:09;29.0;;;23.7;;
26824;SDS011;14402;48.178;11.566;2022-12-10T02:31:39;27.7;;;23.1;;
26824;SDS011;14402;48.178;11.566;2022-12-10T02:32:10;27.7;;;23.1;;
26824;SDS011;14402;48.178;11.566;2022-12-10T02:32:39;27.7;;;23.1;;
26824;SDS011;14402;48.178;11.566;2022-12-10T02:33:09;27.4;;;23.2;;
26824;SDS011;14402;48.178;11.566;2022-12-10T02:33:40;27.0;;;23.2;;
26824;SDS011;14402;48.178;11.566;2022-12-10T02:34:09;27.0;;;23.2;;
26824;SDS011;14402;48.178;11.566;2022-12-10T02:34:40;27.0;;;23.2;;
26824;SDS011;14402;48.178;11.566;2022-12-10T02:35:10;26.8;;;23.0;;
26824;SDS011;14402;48.178;11.566;2022-12-10T02:35:39;26.6;;;22.9;;
26824;SDS011;14402;48.178;11.566;2022-12-10T02:36:09;26.6;;;22.9;;
26824;SDS011;14402;48.178;11.566;2022-12-10T02:36:41;26.6;;;22.9;;
26824;SDS011;14402;48.178;11.566;2022-12-10T02:37:12;26.8;;;22.9;;
26824;SDS011;14402;48.178;11.566;2022-12-10T02:37:40;27.0;;;22.9;;
26824;SDS011;14402;48.178;11.566;2022-12-10T02:38:11;27.0;;;22.9;;
26824;SDS011;14402;48.178;11.566;2022-12-10T02:38:41;27.0;;;22.9;;
26824;SDS011;14402;48.178;11.566;2022-12-10T02:39:11;26.1;;;22.5;;
26824;SDS011;14402;48.178;11.566;2022-12-10T02:39:42;25.3;;;22.0;;
26824;SDS011;14402;48.178;11.566;2022-12-10T02:40:11;25.3;;;22.0;;
26824;SDS011;14402;48.178;11.566;2022-12-10T02:40:41;26.5;;;22.5;;
26824;SDS011;14402;48.178;11.566;2022-12-10T02:41:12;27.7;;;23.0;;
26824;SDS011;14402;48.178;11.566;2022-12-10T02:41:41;27.7;;;23.0;;
26824;SDS011;14402;48.178;11.566;2022-12-10T02:42:11;27.7;;;23.0;;
26824;SDS011;14402;48.178;11.566;2022-12-10T02:42:41;27.0;;;22.4;;
26824;SDS011;14402;48.178;11.566;2022-12-10T02:43:11;26.2;;;21.7;;
26824;SDS011;14402;48.178;11.566;2022-12-10T02:43:41;26.2;;;21.7;;
26824;SDS011;14402;48.178;11.566;2022-12-10T02:44:11;26.2;;;21.7;;
26824;SDS011;14402;48.178;11.566;2022-12-10T02:44:41;26.4;;;22.2;;
26824;SDS011;14402;48.178;11.566;2022-12-10T02:45:11;26.6;;;22.7;;
26824;SDS011;14402;48.178;11.566;2022-12-10T02:45:41;26.6;;;22.7;;
26824;SDS011;14402;48.178;11.566;2022-12-10T02:46:11;26.6;;;22.7;;
26824;SDS011;14402;48.178;11.566;2022-12-10T02:46:41;26.5;;;22.4;;
26824;SDS011;14402;48.178;11.566;2022-12-10T02:47:11;26.5;;;22.0;;
26824;SDS011;14402;48.178;11.566;2022-12-10T02:47:41;26.5;;;22.0;;
26824;SDS011;14402;48.178;11.566;2022-12-10T02:48:12;26.5;;;22.0;;
26824;SDS011;14402;48.178;11.566;2022-12-10T02:48:42;26.2;;;22.0;;
26824;SDS011;14402;48.178;11.566;2022-12-10T02:49:12;25.9;;;22.0;;
26824;SDS011;14402;48.178;11.566;2022-12-10T02:49:42;25.9;;;22.0;;
26824;SDS011;14402;48.178;11.566;2022-12-10T02:50:12;25.9;;;22.0;;
26824;SDS011;14402;48.178;11.566;2022-12-10T02:50:42;26.3;;;21.9;;
26824;SDS011;14402;48.178;11.566;2022-12-10T02:51:12;26.8;;;21.7;;
26824;SDS011;14402;48.178;11.566;2022-12-10T02:51:42;26.8;;;21.7;;
26824;SDS011;14402;48.178;11.566;2022-12-10T02:52:13;26.8;;;21.7;;
26824;SDS011;14402;48.178;11.566;2022-12-10T02:52:42;26.0;;;21.7;;
26824;SDS011;14402;48.178;11.566;2022-12-10T02:53:12;25.3;;;21.6;;
26824;SDS011;14402;48.178;11.566;2022-12-10T02:53:43;25.3;;;21.6;;
26824;SDS011;14402;48.178;11.566;2022-12-10T02:54:45;25.3;;;21.6;;
26824;SDS011;14402;48.178;11.566;2022-12-10T02:54:46;25.8;;;21.8;;
26824;SDS011;14402;48.178;11.566;2022-12-10T02:55:13;26.4;;;21.9;;
26824;SDS011;14402;48.178;11.566;2022-12-10T02:55:47;26.4;;;21.9;;
26824;SDS011;14402;48.178;11.566;2022-12-10T02:56:14;26.4;;;21.9;;
26824;SDS011;14402;48.178;11.566;2022-12-10T02:56:44;25.6;;;21.5;;
26824;SDS011;14402;48.178;11.566;2022-12-10T02:57:15;24.8;;;21.0;;
26824;SDS011;14402;48.178;11.566;2022-12-10T02:57:45;24.8;;;21.0;;
26824;SDS011;14402;48.178;11.566;2022-12-10T02:58:15;24.8;;;21.0;;